createdAt,value
2023-12-01T00:00:52.980Z,2.00
2023-12-01T00:01:53.081Z,2.60
2023-12-01T00:02:53.145Z,1.90
2023-12-01T00:03:53.166Z,2.50
2023-12-01T00:04:53.141Z,1.80
2023-12-01T00:05:53.186Z,2.20
2023-12-01T00:06:53.261Z,2.10
2023-12-01T00:07:53.282Z,2.80
2023-12-01T00:08:53.332Z,2.50
2023-12-01T00:09:53.541Z,2.30
2023-12-01T00:10:53.424Z,2.80
2023-12-01T00:11:53.501Z,2.40
2023-12-01T00:12:53.563Z,2.90
2023-12-01T00:13:53.567Z,2.60
2023-12-01T00:14:53.615Z,2.70
2023-12-01T00:15:53.685Z,3.00
2023-12-01T00:16:53.715Z,2.70
2023-12-01T00:17:53.800Z,2.60
2023-12-01T00:18:53.930Z,2.40
2023-12-01T00:19:53.890Z,3.00
2023-12-01T00:20:53.904Z,2.40
2023-12-01T00:21:53.976Z,2.50
2023-12-01T00:22:54.007Z,2.50
2023-12-01T00:23:54.038Z,2.50
2023-12-01T00:24:54.131Z,2.70
2023-12-01T00:25:54.138Z,2.10
2023-12-01T00:26:54.202Z,2.30
2023-12-01T00:27:54.283Z,3.00
2023-12-01T00:28:54.281Z,2.40
2023-12-01T00:29:54.335Z,2.50
2023-12-01T00:30:54.408Z,2.70
2023-12-01T00:31:54.420Z,2.60
2023-12-01T00:32:54.496Z,2.50
2023-12-01T00:33:54.541Z,3.20
2023-12-01T00:34:54.562Z,2.60
2023-12-01T00:35:54.675Z,2.40
2023-12-01T00:36:54.663Z,3.30
2023-12-01T00:37:54.756Z,2.90
2023-12-01T00:38:54.920Z,2.80
2023-12-01T00:39:54.836Z,2.60
2023-12-01T00:40:54.942Z,2.30
2023-12-01T00:41:54.896Z,2.40
2023-12-01T00:42:54.962Z,2.70
2023-12-01T00:43:55.043Z,2.30
2023-12-01T00:44:55.033Z,2.70
2023-12-01T00:45:55.109Z,3.10
2023-12-01T00:46:55.170Z,2.20
2023-12-01T00:47:55.225Z,2.50
2023-12-01T00:48:55.267Z,2.70
2023-12-01T00:49:55.278Z,2.50
2023-12-01T00:50:55.318Z,2.80
2023-12-01T00:51:55.415Z,2.30
2023-12-01T00:52:55.413Z,2.70
2023-12-01T00:53:55.591Z,2.10
2023-12-01T00:54:55.563Z,2.10
2023-12-01T00:55:55.596Z,2.20
2023-12-01T00:56:55.622Z,2.20
2023-12-01T00:57:55.897Z,2.60
2023-12-01T00:58:55.702Z,2.60
2023-12-01T00:59:55.788Z,2.50
2023-12-01T01:00:55.810Z,2.70
2023-12-01T01:01:55.865Z,2.40
2023-12-01T01:02:55.932Z,2.40
2023-12-01T01:03:56.063Z,2.20
2023-12-01T01:04:56.109Z,2.40
2023-12-01T01:05:56.032Z,2.50
2023-12-01T01:06:56.104Z,2.50
2023-12-01T01:07:56.133Z,2.60
2023-12-01T01:08:56.176Z,2.10
2023-12-01T01:09:56.292Z,3.00
2023-12-01T01:10:56.271Z,2.40
2023-12-01T01:11:56.326Z,2.00
2023-12-01T01:12:56.401Z,2.50
2023-12-01T01:13:56.407Z,2.60
2023-12-01T01:14:56.453Z,2.70
2023-12-01T01:15:56.627Z,2.90
2023-12-01T01:16:56.608Z,2.60
2023-12-01T01:17:56.615Z,2.90
2023-12-01T01:18:56.710Z,2.30
2023-12-01T01:19:56.690Z,2.50
2023-12-01T01:20:56.738Z,2.40
2023-12-01T01:21:56.800Z,2.30
2023-12-01T01:22:56.837Z,2.10
2023-12-01T01:23:56.877Z,2.60
2023-12-01T01:24:56.953Z,1.80
2023-12-01T01:25:56.978Z,2.60
2023-12-01T01:26:57.026Z,2.80
2023-12-01T01:27:57.134Z,2.50
2023-12-01T01:28:57.114Z,3.00
2023-12-01T01:29:57.160Z,2.60
2023-12-01T01:30:57.228Z,2.10
2023-12-01T01:31:57.377Z,2.50
2023-12-01T01:32:57.324Z,2.30
2023-12-01T01:33:57.374Z,2.30
2023-12-01T01:34:57.396Z,2.60
2023-12-01T01:35:57.442Z,2.80
2023-12-01T01:36:57.520Z,2.80
2023-12-01T01:37:57.548Z,2.50
2023-12-01T01:38:57.594Z,2.50
2023-12-01T01:39:57.825Z,2.60
2023-12-01T01:40:57.701Z,3.00
2023-12-01T01:41:57.723Z,2.30
2023-12-01T01:42:57.816Z,2.60
2023-12-01T01:43:57.818Z,3.20
2023-12-01T01:44:57.873Z,2.60
2023-12-01T01:45:57.998Z,2.50
2023-12-01T01:46:57.994Z,2.20
2023-12-01T01:47:58.071Z,2.50
2023-12-01T01:48:58.121Z,2.40
2023-12-01T01:49:58.111Z,2.70
2023-12-01T01:50:58.147Z,2.60
2023-12-01T01:51:58.253Z,2.40
2023-12-01T01:52:58.290Z,2.30
2023-12-01T01:53:58.286Z,2.50
2023-12-01T01:54:58.381Z,2.70
2023-12-01T01:55:58.404Z,2.50
2023-12-01T01:56:58.440Z,2.70
2023-12-01T01:57:58.550Z,2.40
2023-12-01T01:58:58.521Z,2.40
2023-12-01T01:59:58.583Z,2.90
2023-12-01T02:00:58.666Z,2.80
2023-12-01T02:01:58.693Z,3.20
2023-12-01T02:02:58.736Z,2.30
2023-12-01T02:03:58.805Z,2.70
2023-12-01T02:04:58.821Z,2.70
2023-12-01T02:05:58.849Z,2.40
2023-12-01T02:06:58.936Z,2.50
2023-12-01T02:07:58.940Z,2.40
2023-12-01T02:08:58.988Z,2.90
2023-12-01T02:09:59.069Z,2.70
2023-12-01T02:10:59.172Z,3.10
2023-12-01T02:11:59.132Z,2.90
2023-12-01T02:13:00.783Z,2.30
2023-12-01T02:13:59.221Z,2.70
2023-12-01T02:14:59.267Z,2.30
2023-12-01T02:15:59.321Z,3.30
2023-12-01T02:16:59.366Z,2.90
2023-12-01T02:17:59.463Z,3.20
2023-12-01T02:18:59.493Z,2.60
2023-12-01T02:19:59.524Z,2.70
2023-12-01T02:20:59.581Z,2.90
2023-12-01T02:21:59.621Z,2.50
2023-12-01T02:22:59.641Z,2.40
2023-12-01T02:23:59.688Z,2.70
2023-12-01T02:24:59.765Z,2.20
2023-12-01T02:25:59.787Z,2.90
2023-12-01T02:26:59.837Z,2.70
2023-12-01T02:27:59.947Z,2.60
2023-12-01T02:28:59.951Z,2.50
2023-12-01T02:29:59.972Z,2.10
2023-12-01T02:31:00.231Z,3.20
2023-12-01T02:32:00.138Z,2.70
2023-12-01T02:33:00.160Z,2.40
2023-12-01T02:34:00.234Z,2.20
2023-12-01T02:35:00.234Z,2.60
2023-12-01T02:36:00.277Z,2.90
2023-12-01T02:37:00.358Z,2.90
2023-12-01T02:38:00.343Z,2.90
2023-12-01T02:39:00.398Z,2.40
2023-12-01T02:40:00.493Z,2.20
2023-12-01T02:41:00.482Z,2.10
2023-12-01T02:42:00.528Z,2.30
2023-12-01T02:43:00.594Z,3.20
2023-12-01T02:44:00.630Z,2.60
2023-12-01T02:45:00.672Z,2.80
2023-12-01T02:46:00.889Z,2.90
2023-12-01T02:47:00.842Z,2.10
2023-12-01T02:48:00.858Z,3.00
2023-12-01T02:49:00.911Z,2.90
2023-12-01T02:50:00.905Z,2.70
2023-12-01T02:51:00.951Z,3.00
2023-12-01T02:52:01.036Z,2.80
2023-12-01T02:53:01.041Z,2.40
2023-12-01T02:54:01.089Z,2.80
2023-12-01T02:55:01.227Z,2.90
2023-12-01T02:56:01.189Z,2.60
2023-12-01T02:57:01.231Z,2.80
2023-12-01T02:58:01.307Z,2.60
2023-12-01T02:59:01.319Z,2.60
2023-12-01T03:00:01.377Z,2.80
2023-12-01T03:01:01.509Z,2.50
2023-12-01T03:02:01.610Z,2.80
2023-12-01T03:03:01.512Z,2.60
2023-12-01T03:04:01.594Z,2.70
2023-12-01T03:05:01.599Z,2.20
2023-12-01T03:06:01.649Z,3.10
2023-12-01T03:07:01.721Z,2.60
2023-12-01T03:08:01.762Z,2.60
2023-12-01T03:09:01.811Z,2.90
2023-12-01T03:10:01.859Z,2.80
2023-12-01T03:11:01.882Z,3.00
2023-12-01T03:12:01.930Z,2.50
2023-12-01T03:13:02.032Z,2.70
2023-12-01T03:14:02.020Z,2.50
2023-12-01T03:15:06.300Z,2.50
2023-12-01T03:16:02.414Z,2.40
2023-12-01T03:17:02.199Z,1.90
2023-12-01T03:18:02.338Z,2.00
2023-12-01T03:19:02.306Z,2.60
2023-12-01T03:20:02.299Z,2.20
2023-12-01T03:21:02.350Z,2.10
2023-12-01T03:22:02.430Z,2.60
2023-12-01T03:23:02.442Z,1.60
2023-12-01T03:24:02.507Z,2.90
2023-12-01T03:25:02.669Z,1.80
2023-12-01T03:26:02.594Z,2.30
2023-12-01T03:27:02.631Z,1.80
2023-12-01T03:28:02.704Z,2.30
2023-12-01T03:29:02.719Z,1.70
2023-12-01T03:30:02.765Z,2.20
2023-12-01T03:31:02.827Z,2.10
2023-12-01T03:32:02.892Z,2.00
2023-12-01T03:33:02.944Z,1.70
2023-12-01T03:34:03.002Z,3.50
2023-12-01T03:35:03.007Z,2.30
2023-12-01T03:36:03.061Z,2.10
2023-12-01T03:37:03.116Z,0.90
2023-12-01T03:38:03.168Z,3.60
2023-12-01T03:39:03.196Z,1.70
2023-12-01T03:40:03.379Z,1.90
2023-12-01T03:41:03.283Z,2.50
2023-12-01T03:42:03.360Z,2.00
2023-12-01T03:43:03.393Z,2.50
2023-12-01T03:44:03.449Z,2.10
2023-12-01T03:45:03.466Z,2.00
2023-12-01T03:46:03.587Z,1.40
2023-12-01T03:47:03.657Z,2.00
2023-12-01T03:48:03.679Z,1.70
2023-12-01T03:49:03.693Z,1.60
2023-12-01T03:50:03.701Z,2.50
2023-12-01T03:51:03.752Z,2.30
2023-12-01T03:52:03.811Z,2.70
2023-12-01T03:53:03.853Z,1.10
2023-12-01T03:54:03.894Z,1.40
2023-12-01T03:55:04.037Z,2.20
2023-12-01T03:56:04.008Z,1.90
2023-12-01T03:57:04.031Z,2.50
2023-12-01T03:58:04.269Z,1.60
2023-12-01T03:59:04.128Z,2.40
2023-12-01T04:00:04.182Z,1.70
2023-12-01T04:01:04.274Z,2.60
2023-12-01T04:02:04.379Z,1.90
2023-12-01T04:03:04.316Z,3.20
2023-12-01T04:04:04.429Z,2.20
2023-12-01T04:05:04.406Z,1.60
2023-12-01T04:06:04.457Z,3.20
2023-12-01T04:07:04.563Z,3.20
2023-12-01T04:08:04.564Z,4.20
2023-12-01T04:09:04.594Z,3.50
2023-12-01T04:10:04.697Z,3.60
2023-12-01T04:11:04.684Z,3.70
2023-12-01T04:12:04.762Z,2.00
2023-12-01T04:13:04.840Z,3.70
2023-12-01T04:14:04.840Z,2.70
2023-12-01T04:15:04.873Z,2.80
2023-12-01T04:16:04.949Z,3.10
2023-12-01T04:17:04.990Z,3.70
2023-12-01T04:18:05.047Z,3.00
2023-12-01T04:19:05.108Z,3.50
2023-12-01T04:20:05.107Z,3.30
2023-12-01T04:21:05.155Z,2.30
2023-12-01T04:22:05.259Z,2.40
2023-12-01T04:23:05.250Z,2.20
2023-12-01T04:24:05.302Z,0.70
2023-12-01T04:25:05.370Z,3.40
2023-12-01T04:26:05.388Z,2.30
2023-12-01T04:27:05.434Z,3.10
2023-12-01T04:28:05.534Z,1.90
2023-12-01T04:29:05.532Z,2.20
2023-12-01T04:30:05.575Z,1.20
2023-12-01T04:31:10.870Z,2.80
2023-12-01T04:32:05.795Z,1.20
2023-12-01T04:33:05.789Z,2.30
2023-12-01T04:34:05.783Z,3.70
2023-12-01T04:35:05.810Z,3.70
2023-12-01T04:36:05.863Z,2.50
2023-12-01T04:37:05.990Z,2.30
2023-12-01T04:38:05.976Z,4.00
2023-12-01T04:39:06.022Z,3.00
2023-12-01T04:40:06.067Z,4.00
2023-12-01T04:41:06.092Z,4.30
2023-12-01T04:42:06.142Z,3.10
2023-12-01T04:43:06.242Z,3.00
2023-12-01T04:44:06.256Z,4.30
2023-12-01T04:45:06.284Z,3.80
2023-12-01T04:46:06.452Z,4.40
2023-12-01T04:47:06.370Z,2.90
2023-12-01T04:48:06.475Z,2.50
2023-12-01T04:49:06.511Z,4.40
2023-12-01T04:50:06.514Z,4.70
2023-12-01T04:51:06.561Z,4.00
2023-12-01T04:52:06.610Z,4.30
2023-12-01T04:53:06.647Z,4.50
2023-12-01T04:54:06.696Z,3.90
2023-12-01T04:55:06.774Z,3.60
2023-12-01T04:56:06.787Z,4.10
2023-12-01T04:57:06.837Z,3.90
2023-12-01T04:58:06.893Z,4.20
2023-12-01T04:59:06.956Z,3.90
2023-12-01T05:00:07.001Z,3.90
2023-12-01T05:01:07.113Z,3.90
2023-12-01T05:02:07.133Z,3.60
2023-12-01T05:03:07.196Z,3.30
2023-12-01T05:04:07.443Z,3.10
2023-12-01T05:05:07.326Z,3.20
2023-12-01T05:06:07.263Z,3.60
2023-12-01T05:07:07.323Z,3.20
2023-12-01T05:08:07.348Z,3.40
2023-12-01T05:09:07.393Z,4.00
2023-12-01T05:10:07.490Z,3.30
2023-12-01T05:11:07.487Z,4.60
2023-12-01T05:12:07.533Z,2.80
2023-12-01T05:13:07.776Z,3.10
2023-12-01T05:14:07.633Z,4.10
2023-12-01T05:15:07.673Z,2.80
2023-12-01T05:16:07.769Z,3.00
2023-12-01T05:17:07.795Z,2.40
2023-12-01T05:18:07.935Z,3.50
2023-12-01T05:19:07.893Z,2.80
2023-12-01T05:20:07.908Z,2.80
2023-12-01T05:21:07.956Z,3.20
2023-12-01T05:22:08.100Z,3.10
2023-12-01T05:23:08.056Z,3.70
2023-12-01T05:24:08.095Z,3.50
2023-12-01T05:25:08.186Z,3.50
2023-12-01T05:26:08.185Z,4.20
2023-12-01T05:27:08.234Z,2.70
2023-12-01T05:28:08.327Z,3.80
2023-12-01T05:29:08.328Z,4.20
2023-12-01T05:30:08.395Z,3.60
2023-12-01T05:31:08.493Z,3.30
2023-12-01T05:32:08.515Z,2.60
2023-12-01T05:33:08.590Z,2.60
2023-12-01T05:34:08.600Z,2.80
2023-12-01T05:35:08.614Z,3.30
2023-12-01T05:36:08.653Z,3.40
2023-12-01T05:37:08.723Z,2.60
2023-12-01T05:38:08.751Z,2.50
2023-12-01T05:39:08.793Z,4.10
2023-12-01T05:40:08.888Z,3.80
2023-12-01T05:41:08.886Z,3.40
2023-12-01T05:42:08.934Z,3.80
2023-12-01T05:43:09.472Z,3.80
2023-12-01T05:44:09.070Z,3.70
2023-12-01T05:45:09.074Z,3.80
2023-12-01T05:46:09.186Z,3.30
2023-12-01T05:47:09.165Z,4.00
2023-12-01T05:48:10.384Z,3.00
2023-12-01T05:49:09.280Z,4.20
2023-12-01T05:50:09.305Z,3.20
2023-12-01T05:51:09.354Z,3.80
2023-12-01T05:52:09.408Z,2.90
2023-12-01T05:53:09.763Z,3.90
2023-12-01T05:54:09.499Z,3.00
2023-12-01T05:55:09.588Z,3.30
2023-12-01T05:56:09.586Z,3.20
2023-12-01T05:57:09.632Z,2.80
2023-12-01T05:58:09.704Z,3.70
2023-12-01T05:59:09.723Z,4.00
2023-12-01T06:00:09.972Z,3.00
2023-12-01T06:01:09.882Z,4.40
2023-12-01T06:02:09.904Z,1.60
2023-12-01T06:03:09.985Z,3.40
2023-12-01T06:04:10.048Z,4.00
2023-12-01T06:05:10.002Z,3.40
2023-12-01T06:06:10.051Z,4.00
2023-12-01T06:07:10.108Z,4.00
2023-12-01T06:08:10.628Z,3.60
2023-12-01T06:09:10.192Z,3.30
2023-12-01T06:10:10.273Z,2.80
2023-12-01T06:11:10.283Z,3.10
2023-12-01T06:12:10.328Z,3.80
2023-12-01T06:13:10.517Z,4.10
2023-12-01T06:14:10.428Z,3.10
2023-12-01T06:15:10.526Z,3.30
2023-12-01T06:16:10.569Z,2.30
2023-12-01T06:17:10.592Z,3.60
2023-12-01T06:18:10.633Z,2.60
2023-12-01T06:19:11.576Z,3.90
2023-12-01T06:20:10.724Z,3.00
2023-12-01T06:21:10.749Z,2.70
2023-12-01T06:22:10.800Z,2.40
2023-12-01T06:23:10.841Z,3.20
2023-12-01T06:24:10.917Z,2.90
2023-12-01T06:25:10.970Z,3.50
2023-12-01T06:26:10.981Z,3.10
2023-12-01T06:27:11.026Z,3.00
2023-12-01T06:28:11.742Z,3.00
2023-12-01T06:29:11.122Z,2.90
2023-12-01T06:30:11.170Z,3.10
2023-12-01T06:31:12.220Z,2.20
2023-12-01T06:32:11.282Z,3.10
2023-12-01T06:33:11.380Z,3.10
2023-12-01T06:34:11.413Z,2.80
2023-12-01T06:35:11.403Z,2.10
2023-12-01T06:36:11.477Z,2.60
2023-12-01T06:37:11.527Z,3.10
2023-12-01T06:38:11.544Z,3.20
2023-12-01T06:39:11.664Z,3.10
2023-12-01T06:40:11.675Z,2.80
2023-12-01T06:41:11.683Z,3.00
2023-12-01T06:42:11.732Z,3.30
2023-12-01T06:43:13.128Z,3.30
2023-12-01T06:44:11.824Z,2.80
2023-12-01T06:45:11.873Z,4.20
2023-12-01T06:46:12.026Z,3.60
2023-12-01T06:47:11.988Z,2.50
2023-12-01T06:48:12.124Z,3.50
2023-12-01T06:49:12.117Z,2.70
2023-12-01T06:50:12.117Z,2.70
2023-12-01T06:51:12.150Z,2.70
2023-12-01T06:52:12.263Z,2.90
2023-12-01T06:53:12.692Z,3.20
2023-12-01T06:54:12.334Z,1.50
2023-12-01T06:55:12.420Z,2.70
2023-12-01T06:56:12.391Z,2.50
2023-12-01T06:57:12.428Z,3.20
2023-12-01T06:58:12.498Z,2.60
2023-12-01T06:59:12.553Z,2.30
2023-12-01T07:00:12.569Z,2.60
2023-12-01T07:01:12.893Z,3.20
2023-12-01T07:02:12.766Z,2.10
2023-12-01T07:03:13.021Z,2.50
2023-12-01T07:04:12.787Z,2.00
2023-12-01T07:05:12.806Z,1.90
2023-12-01T07:06:12.879Z,3.10
2023-12-01T07:07:12.970Z,3.80
2023-12-01T07:08:13.577Z,3.20
2023-12-01T07:09:12.980Z,3.20
2023-12-01T07:10:13.045Z,2.20
2023-12-01T07:11:13.088Z,2.90
2023-12-01T07:12:13.125Z,2.60
2023-12-01T07:13:13.307Z,2.70
2023-12-01T07:14:13.231Z,2.70
2023-12-01T07:15:13.261Z,2.60
2023-12-01T07:16:13.608Z,2.70
2023-12-01T07:17:13.393Z,2.30
2023-12-01T07:18:13.505Z,1.80
2023-12-01T07:19:13.499Z,2.10
2023-12-01T07:20:13.501Z,2.00
2023-12-01T07:21:13.567Z,1.60
2023-12-01T07:22:13.646Z,1.70
2023-12-01T07:23:13.639Z,2.20
2023-12-01T07:24:13.702Z,2.40
2023-12-01T07:25:13.747Z,2.60
2023-12-01T07:26:13.769Z,2.70
2023-12-01T07:27:13.817Z,2.40
2023-12-01T07:28:13.893Z,1.20
2023-12-01T07:29:13.914Z,2.40
2023-12-01T07:30:13.979Z,2.40
2023-12-01T07:31:14.060Z,2.50
2023-12-01T07:32:14.051Z,3.00
2023-12-01T07:33:14.170Z,2.20
2023-12-01T07:34:14.173Z,2.90
2023-12-01T07:35:14.194Z,3.00
2023-12-01T07:36:15.202Z,3.70
2023-12-01T07:37:14.330Z,3.30
2023-12-01T07:38:14.328Z,2.10
2023-12-01T07:39:14.376Z,2.50
2023-12-01T07:40:14.498Z,2.70
2023-12-01T07:41:14.467Z,2.20
2023-12-01T07:42:14.527Z,2.30
2023-12-01T07:43:14.625Z,2.00
2023-12-01T07:44:14.609Z,2.70
2023-12-01T07:45:14.653Z,2.70
2023-12-01T07:46:14.764Z,2.20
2023-12-01T07:47:14.765Z,2.10
2023-12-01T07:48:14.876Z,2.50
2023-12-01T07:49:14.862Z,2.20
2023-12-01T07:50:14.887Z,2.00
2023-12-01T07:51:14.931Z,2.40
2023-12-01T07:52:15.028Z,1.80
2023-12-01T07:53:15.023Z,1.60
2023-12-01T07:54:15.071Z,2.30
2023-12-01T07:55:15.145Z,1.10
2023-12-01T07:56:15.216Z,1.60
2023-12-01T07:57:15.210Z,0.90
2023-12-01T07:58:15.272Z,0.50
2023-12-01T07:59:15.305Z,2.20
2023-12-01T08:00:15.950Z,1.70
2023-12-01T08:01:15.460Z,2.30
2023-12-01T08:02:15.540Z,1.90
2023-12-01T08:03:15.581Z,1.00
2023-12-01T08:04:15.571Z,0.90
2023-12-01T08:05:16.188Z,1.40
2023-12-01T08:06:15.630Z,2.50
2023-12-01T08:07:15.888Z,1.80
2023-12-01T08:08:15.719Z,2.40
2023-12-01T08:09:15.763Z,1.70
2023-12-01T08:10:15.884Z,1.80
2023-12-01T08:11:15.863Z,1.30
2023-12-01T08:12:15.932Z,1.50
2023-12-01T08:13:15.969Z,1.40
2023-12-01T08:14:16.040Z,0.90
2023-12-01T08:15:16.055Z,2.50
2023-12-01T08:16:16.178Z,1.50
2023-12-01T08:17:16.153Z,1.80
2023-12-01T08:18:16.237Z,2.60
2023-12-01T08:19:16.256Z,2.40
2023-12-01T08:20:16.317Z,2.00
2023-12-01T08:21:16.360Z,2.00
2023-12-01T08:22:16.368Z,1.50
2023-12-01T08:23:16.417Z,1.80
2023-12-01T08:24:16.462Z,1.90
2023-12-01T08:25:16.518Z,1.80
2023-12-01T08:26:16.590Z,1.40
2023-12-01T08:27:16.601Z,1.60
2023-12-01T08:28:16.665Z,1.40
2023-12-01T08:29:16.692Z,2.20
2023-12-01T08:30:19.349Z,2.00
2023-12-01T08:31:16.850Z,0.90
2023-12-01T08:32:17.030Z,2.20
2023-12-01T08:33:16.929Z,2.30
2023-12-01T08:34:22.537Z,1.90
2023-12-01T08:35:17.253Z,1.10
2023-12-01T08:36:18.525Z,3.00
2023-12-01T08:37:21.389Z,2.20
2023-12-01T08:38:17.568Z,2.10
2023-12-01T08:39:17.150Z,3.00
2023-12-01T08:40:17.208Z,1.90
2023-12-01T08:41:17.246Z,2.20
2023-12-01T08:42:17.296Z,1.70
2023-12-01T08:43:17.338Z,1.40
2023-12-01T08:44:17.405Z,2.30
2023-12-01T08:45:17.454Z,2.30
2023-12-01T08:46:17.527Z,1.30
2023-12-01T08:47:17.519Z,2.00
2023-12-01T08:48:17.573Z,2.40
2023-12-01T08:49:17.629Z,2.10
2023-12-01T08:50:17.676Z,1.70
2023-12-01T08:51:17.706Z,0.90
2023-12-01T08:52:17.757Z,1.80
2023-12-01T08:53:17.798Z,1.90
2023-12-01T08:54:21.863Z,1.70
2023-12-01T08:55:17.970Z,2.30
2023-12-01T08:56:17.939Z,1.90
2023-12-01T08:57:17.985Z,2.10
2023-12-01T08:58:18.038Z,1.70
2023-12-01T08:59:18.112Z,1.80
2023-12-01T09:00:18.175Z,1.50
2023-12-01T09:01:18.217Z,1.60
2023-12-01T09:02:18.298Z,1.70
2023-12-01T09:03:18.438Z,2.40
2023-12-01T09:04:18.409Z,2.20
2023-12-01T09:05:18.363Z,1.70
2023-12-01T09:06:18.479Z,1.50
2023-12-01T09:07:18.451Z,1.60
2023-12-01T09:08:18.498Z,1.80
2023-12-01T09:09:18.719Z,1.90
2023-12-01T09:10:18.590Z,1.70
2023-12-01T09:11:18.633Z,1.70
2023-12-01T09:12:18.704Z,1.40
2023-12-01T09:13:18.753Z,2.10
2023-12-01T09:14:18.776Z,1.60
2023-12-01T09:15:18.957Z,1.50
2023-12-01T09:16:18.895Z,1.80
2023-12-01T09:17:18.920Z,2.20
2023-12-01T09:18:19.119Z,1.70
2023-12-01T09:19:19.067Z,1.90
2023-12-01T09:20:19.059Z,1.70
2023-12-01T09:21:19.151Z,1.30
2023-12-01T09:22:19.166Z,1.20
2023-12-01T09:23:19.200Z,1.50
2023-12-01T09:24:19.299Z,1.70
2023-12-01T09:25:19.295Z,1.20
2023-12-01T09:26:19.395Z,2.00
2023-12-01T09:27:19.490Z,2.40
2023-12-01T09:28:19.438Z,1.90
2023-12-01T09:29:19.483Z,2.20
2023-12-01T09:30:19.577Z,2.00
2023-12-01T09:31:19.656Z,1.20
2023-12-01T09:32:19.651Z,1.10
2023-12-01T09:33:19.826Z,1.80
2023-12-01T09:34:19.718Z,1.70
2023-12-01T09:35:53.566Z,0.90
2023-12-01T09:36:19.971Z,0.20
2023-12-01T09:37:19.857Z,0.70
2023-12-01T09:38:19.909Z,0.40
2023-12-01T09:39:20.055Z,1.30
2023-12-01T09:40:20.002Z,1.20
2023-12-01T09:41:20.045Z,0.60
2023-12-01T09:42:20.186Z,0.90
2023-12-01T09:43:20.360Z,1.40
2023-12-01T09:44:20.192Z,1.50
2023-12-01T09:45:20.277Z,1.40
2023-12-01T09:46:20.317Z,1.10
2023-12-01T09:47:20.334Z,1.10
2023-12-01T09:48:20.488Z,0.80
2023-12-01T09:49:20.429Z,1.50
2023-12-01T09:50:22.502Z,1.30
2023-12-01T09:51:20.572Z,1.70
2023-12-01T09:52:20.569Z,2.10
2023-12-01T09:53:20.636Z,1.60
2023-12-01T09:54:20.717Z,1.30
2023-12-01T09:55:20.717Z,1.90
2023-12-01T09:56:20.762Z,1.80
2023-12-01T09:57:20.850Z,2.20
2023-12-01T09:58:20.879Z,1.50
2023-12-01T09:59:20.897Z,2.00
2023-12-01T10:00:20.967Z,1.80
2023-12-01T10:01:21.047Z,2.40
2023-12-01T10:02:21.099Z,1.80
2023-12-01T10:03:21.210Z,2.10
2023-12-01T10:04:21.364Z,1.90
2023-12-01T10:05:21.373Z,2.00
2023-12-01T10:06:21.259Z,4.60
2023-12-01T10:07:21.286Z,1.40
2023-12-01T10:08:21.344Z,2.10
2023-12-01T10:09:21.418Z,2.50
2023-12-01T10:10:21.422Z,2.40
2023-12-01T10:11:21.472Z,2.20
2023-12-01T10:12:21.549Z,1.20
2023-12-01T10:13:21.566Z,2.40
2023-12-01T10:14:21.642Z,1.80
2023-12-01T10:15:21.705Z,1.50
2023-12-01T10:16:21.707Z,3.10
2023-12-01T10:17:21.759Z,2.50
2023-12-01T10:18:24.094Z,1.90
2023-12-01T10:19:21.917Z,1.90
2023-12-01T10:20:21.919Z,1.50
2023-12-01T10:21:21.995Z,1.80
2023-12-01T10:22:21.995Z,1.60
2023-12-01T10:23:22.041Z,1.70
2023-12-01T10:24:22.407Z,1.80
2023-12-01T10:25:22.132Z,1.30
2023-12-01T10:26:22.182Z,2.10
2023-12-01T10:27:22.411Z,2.60
2023-12-01T10:28:22.289Z,1.90
2023-12-01T10:29:22.325Z,2.60
2023-12-01T10:30:25.418Z,1.60
2023-12-01T10:31:22.450Z,2.30
2023-12-01T10:32:22.464Z,2.10
2023-12-01T10:33:22.613Z,1.60
2023-12-01T10:34:22.563Z,2.30
2023-12-01T10:35:22.615Z,1.40
2023-12-01T10:36:22.728Z,1.50
2023-12-01T10:37:22.700Z,1.90
2023-12-01T10:38:22.749Z,1.50
2023-12-01T10:39:22.858Z,1.80
2023-12-01T10:40:22.842Z,1.90
2023-12-01T10:41:22.969Z,1.60
2023-12-01T10:42:23.046Z,2.00
2023-12-01T10:43:23.075Z,1.90
2023-12-01T10:44:23.040Z,1.40
2023-12-01T10:45:23.164Z,2.00
2023-12-01T10:46:23.151Z,1.70
2023-12-01T10:47:23.190Z,1.20
2023-12-01T10:48:23.384Z,1.80
2023-12-01T10:49:23.270Z,1.70
2023-12-01T10:50:23.315Z,1.90
2023-12-01T10:51:23.485Z,1.70
2023-12-01T10:52:23.433Z,2.30
2023-12-01T10:53:23.476Z,1.70
2023-12-01T10:54:23.568Z,1.60
2023-12-01T10:55:23.554Z,1.60
2023-12-01T10:56:23.603Z,0.90
2023-12-01T10:57:23.715Z,1.40
2023-12-01T10:58:23.719Z,1.60
2023-12-01T10:59:23.744Z,1.60
2023-12-01T11:00:23.872Z,1.50
2023-12-01T11:01:23.989Z,1.60
2023-12-01T11:02:24.060Z,1.70
2023-12-01T11:03:24.081Z,1.70
2023-12-01T11:04:24.029Z,1.90
2023-12-01T11:05:24.058Z,1.40
2023-12-01T11:06:24.117Z,1.70
2023-12-01T11:07:24.144Z,1.80
2023-12-01T11:08:24.200Z,1.30
2023-12-01T11:09:24.314Z,1.70
2023-12-01T11:10:24.269Z,0.80
2023-12-01T11:11:24.318Z,0.50
2023-12-01T11:12:24.422Z,1.20
2023-12-01T11:13:24.455Z,0.80
2023-12-01T11:14:24.485Z,2.20
2023-12-01T11:15:24.633Z,1.10
2023-12-01T11:16:24.559Z,1.80
2023-12-01T11:17:24.619Z,1.70
2023-12-01T11:18:24.778Z,1.90
2023-12-01T11:19:24.855Z,2.00
2023-12-01T11:20:24.758Z,0.90
2023-12-01T11:21:24.822Z,2.30
2023-12-01T11:22:24.844Z,1.60
2023-12-01T11:23:24.913Z,1.70
2023-12-01T11:24:24.997Z,1.80
2023-12-01T11:25:24.986Z,1.20
2023-12-01T11:26:25.034Z,1.80
2023-12-01T11:27:25.107Z,2.00
2023-12-01T11:28:25.153Z,1.80
2023-12-01T11:29:25.182Z,1.90
2023-12-01T11:30:25.233Z,1.00
2023-12-01T11:31:25.311Z,1.90
2023-12-01T11:32:25.385Z,1.20
2023-12-01T11:33:25.485Z,2.00
2023-12-01T11:34:25.568Z,1.40
2023-12-01T11:35:25.632Z,1.70
2023-12-01T11:36:25.753Z,1.80
2023-12-01T11:37:25.573Z,1.30
2023-12-01T11:38:25.620Z,1.50
2023-12-01T11:39:25.691Z,1.70
2023-12-01T11:40:25.724Z,1.30
2023-12-01T11:41:25.832Z,1.10
2023-12-01T11:42:25.917Z,1.30
2023-12-01T11:43:32.207Z,1.20
2023-12-01T11:44:26.308Z,0.40
2023-12-01T11:45:26.090Z,1.20
2023-12-01T11:46:26.051Z,1.40
2023-12-01T11:47:26.089Z,1.00
2023-12-01T11:48:26.319Z,1.30
2023-12-01T11:49:26.266Z,1.80
2023-12-01T11:50:26.177Z,2.50
2023-12-01T11:51:26.276Z,1.70
2023-12-01T11:52:26.276Z,1.10
2023-12-01T11:53:26.324Z,1.00
2023-12-01T11:54:26.415Z,1.40
2023-12-01T11:55:26.414Z,1.60
2023-12-01T11:56:26.483Z,0.80
2023-12-01T11:57:26.536Z,0.90
2023-12-01T11:58:26.558Z,1.70
2023-12-01T11:59:26.619Z,1.50
2023-12-01T12:00:26.697Z,1.40
2023-12-01T12:01:26.699Z,1.20
2023-12-01T12:02:26.828Z,1.40
2023-12-01T12:03:26.830Z,0.20
2023-12-01T12:04:27.055Z,1.50
2023-12-01T12:05:26.907Z,1.70
2023-12-01T12:06:27.036Z,1.10
2023-12-01T12:07:26.994Z,2.00
2023-12-01T12:08:27.030Z,1.90
2023-12-01T12:09:27.120Z,1.80
2023-12-01T12:10:27.130Z,1.90
2023-12-01T12:11:27.300Z,0.70
2023-12-01T12:12:27.326Z,1.00
2023-12-01T12:13:27.277Z,1.60
2023-12-01T12:14:27.432Z,2.00
2023-12-01T12:15:27.529Z,1.70
2023-12-01T12:16:27.481Z,1.00
2023-12-01T12:17:27.481Z,1.70
2023-12-01T12:18:27.595Z,1.60
2023-12-01T12:19:27.756Z,0.70
2023-12-01T12:20:27.848Z,0.80
2023-12-01T12:21:27.688Z,0.90
2023-12-01T12:22:27.724Z,1.00
2023-12-01T12:23:27.847Z,2.10
2023-12-01T12:24:27.825Z,1.50
2023-12-01T12:25:27.863Z,0.80
2023-12-01T12:26:27.880Z,0.60
2023-12-01T12:27:27.999Z,0.50
2023-12-01T12:28:28.004Z,1.30
2023-12-01T12:29:28.107Z,1.40
2023-12-01T12:30:28.158Z,1.20
2023-12-01T12:31:28.152Z,1.60
2023-12-01T12:32:28.227Z,1.00
2023-12-01T12:33:28.331Z,1.80
2023-12-01T12:34:29.527Z,1.20
2023-12-01T12:35:28.360Z,1.20
2023-12-01T12:36:28.445Z,1.30
2023-12-01T12:37:28.400Z,1.60
2023-12-01T12:38:28.449Z,2.20
2023-12-01T12:39:28.592Z,2.40
2023-12-01T12:40:28.537Z,2.10
2023-12-01T12:41:28.585Z,1.60
2023-12-01T12:42:28.679Z,1.70
2023-12-01T12:43:28.675Z,2.30
2023-12-01T12:44:28.745Z,2.40
2023-12-01T12:45:28.835Z,1.70
2023-12-01T12:46:28.844Z,2.20
2023-12-01T12:47:28.904Z,2.30
2023-12-01T12:48:29.003Z,1.60
2023-12-01T12:49:28.958Z,2.00
2023-12-01T12:50:29.012Z,1.70
2023-12-01T12:51:29.092Z,1.90
2023-12-01T12:52:29.101Z,1.30
2023-12-01T12:53:29.153Z,1.20
2023-12-01T12:54:29.310Z,1.80
2023-12-01T12:55:29.240Z,1.70
2023-12-01T12:56:29.289Z,2.20
2023-12-01T12:57:29.344Z,1.80
2023-12-01T12:58:29.383Z,1.00
2023-12-01T12:59:29.427Z,1.40
2023-12-01T13:00:29.625Z,1.00
2023-12-01T13:01:29.604Z,0.80
2023-12-01T13:02:29.616Z,1.70
2023-12-01T13:03:29.713Z,1.00
2023-12-01T13:04:29.693Z,1.90
2023-12-01T13:05:29.771Z,1.30
2023-12-01T13:06:29.791Z,0.90
2023-12-01T13:07:29.824Z,1.40
2023-12-01T13:08:29.855Z,2.10
2023-12-01T13:09:30.058Z,2.10
2023-12-01T13:10:29.946Z,1.20
2023-12-01T13:11:30.000Z,0.90
2023-12-01T13:12:30.101Z,1.40
2023-12-01T13:13:30.093Z,1.10
2023-12-01T13:14:30.134Z,1.50
2023-12-01T13:15:30.195Z,1.40
2023-12-01T13:16:30.301Z,0.90
2023-12-01T13:17:30.383Z,0.90
2023-12-01T13:18:30.391Z,0.90
2023-12-01T13:19:30.398Z,1.00